Time;durP1;ratioP1;P1;durP2;ratioP2;P2;SDS_P1;SDS_P2;PMS_P1;PMS_P2;Temp;Humidity;BMP_temperature;BMP_pressure;BME280_temperature;BME280_humidity;BME280_pressure;Samples;Min_cycle;Max_cycle;Signal;HPM_P1;HPM_P2
2022/12/27 00:00:00;;;;;;;21.17;13.90;;;;;;;3.50;80.99;101450.47;1843400;77;26753;-64
2022/12/27 00:02:27;;;;;;;18.67;13.72;;;;;;;3.52;80.77;101447.27;1815881;77;25681;-64
2022/12/27 00:04:53;;;;;;;28.55;14.98;;;;;;;3.45;80.20;101442.70;1829953;75;27411;-64
2022/12/27 00:07:21;;;;;;;22.70;14.65;;;;;;;3.45;80.41;101440.05;1817179;77;25981;-64
2022/12/27 00:09:47;;;;;;;23.35;15.40;;;;;;;3.48;80.58;101440.39;1830616;77;25445;-64
2022/12/27 00:12:14;;;;;;;20.82;14.25;;;;;;;3.48;80.37;101437.73;1848125;77;25724;-64
2022/12/27 00:14:41;;;;;;;22.82;15.45;;;;;;;3.45;80.05;101441.38;1845228;77;25724;-64
2022/12/27 00:17:09;;;;;;;24.15;15.83;;;;;;;3.40;79.72;101436.77;1844674;77;27568;-64
2022/12/27 00:19:36;;;;;;;24.57;15.30;;;;;;;3.36;79.59;101425.02;1839951;75;25781;-64
2022/12/27 00:22:04;;;;;;;24.07;15.15;;;;;;;3.26;79.11;101425.93;1842970;77;26065;-64
2022/12/27 00:24:31;;;;;;;23.32;15.53;;;;;;;3.19;79.18;101428.45;1823273;77;25804;-64
2022/12/27 00:26:58;;;;;;;24.12;15.75;;;;;;;3.13;79.40;101438.46;1830616;75;26407;-64
2022/12/27 00:29:25;;;;;;;23.42;15.23;;;;;;;3.09;79.60;101435.53;1837182;77;28442;-64
2022/12/27 00:31:52;;;;;;;25.48;16.65;;;;;;;3.05;79.41;101437.95;1830769;77;25851;-64
2022/12/27 00:34:19;;;;;;;22.20;14.78;;;;;;;2.99;79.31;101427.63;1834035;77;25673;-64
2022/12/27 00:36:46;;;;;;;24.72;15.15;;;;;;;2.94;79.32;101433.59;1836012;77;25802;-64
2022/12/27 00:39:14;;;;;;;23.73;14.98;;;;;;;2.91;79.50;101436.42;1836600;77;25902;-64
2022/12/27 00:41:40;;;;;;;26.30;15.08;;;;;;;2.90;79.55;101442.66;1836982;77;27452;-64
2022/12/27 00:44:08;;;;;;;22.30;14.87;;;;;;;2.87;79.54;101438.80;1838708;77;25741;-64
2022/12/27 00:46:34;;;;;;;21.17;14.18;;;;;;;2.86;79.60;101439.28;1839559;77;25697;-64
2022/12/27 00:49:01;;;;;;;22.73;14.80;;;;;;;2.87;80.01;101441.46;1836362;77;26881;-64
2022/12/27 00:51:28;;;;;;;23.35;14.45;;;;;;;2.90;80.39;101438.19;1838484;77;25707;-64
2022/12/27 00:53:55;;;;;;;22.25;13.38;;;;;;;2.93;80.57;101438.52;1834190;77;27456;-64
2022/12/27 00:56:28;;;;;;;20.27;14.00;;;;;;;2.96;80.49;101433.91;1834394;77;25770;-64
2022/12/27 00:59:01;;;;;;;19.27;12.93;;;;;;;2.98;80.46;101429.87;1835944;77;25741;-64
2022/12/27 01:01:32;;;;;;;22.00;14.95;;;;;;;3.02;80.66;101429.27;1834340;77;25983;-64
2022/12/27 01:04:00;;;;;;;23.10;13.72;;;;;;;3.07;81.07;101425.47;1832497;77;25914;-64
2022/12/27 01:06:31;;;;;;;25.97;14.65;;;;;;;3.15;81.24;101423.75;1824130;77;28434;-64
2022/12/27 01:09:00;;;;;;;27.73;16.67;;;;;;;3.21;81.16;101414.19;1816047;77;25702;-64
2022/12/27 01:11:28;;;;;;;23.07;14.47;;;;;;;3.29;81.16;101421.77;1821491;77;25737;-64
2022/12/27 01:14:01;;;;;;;22.55;13.43;;;;;;;3.34;81.14;101429.53;1821057;77;25777;-64
2022/12/27 01:16:29;;;;;;;;;;;;;;;3.33;80.70;101423.82;1825035;77;25717;-64
2022/12/27 01:18:58;;;;;;;22.90;13.48;;;;;;;3.37;80.73;101432.06;1825127;77;27527;-64
2022/12/27 01:21:26;;;;;;;19.50;11.88;;;;;;;3.38;80.78;101430.64;1819726;77;26076;-64
2022/12/27 01:23:54;;;;;;;21.17;14.25;;;;;;;3.37;80.55;101432.91;1819564;77;25707;-64
2022/12/27 01:26:22;;;;;;;18.50;13.20;;;;;;;3.33;80.32;101426.48;1820225;77;27945;-64
2022/12/27 01:28:51;;;;;;;20.72;13.10;;;;;;;3.33;80.48;101431.34;1819945;77;25708;-64
2022/12/27 01:31:23;;;;;;;19.20;12.35;;;;;;;3.30;80.13;101428.82;1842340;77;27453;-64
2022/12/27 01:33:58;;;;;;;21.65;13.83;;;;;;;3.28;80.50;101424.03;1851699;75;25783;-64
2022/12/27 01:36:27;;;;;;;19.52;12.18;;;;;;;3.33;80.62;101424.70;1850817;77;25735;-64
2022/12/27 01:38:54;;;;;;;17.92;12.35;;;;;;;3.38;80.78;101422.66;1856436;77;25744;-64
2022/12/27 01:44:48;;;;;;;24.47;14.73;;;;;;;3.47;80.78;101415.17;1823063;77;27447;-64
2022/12/27 01:47:31;;;;;;;19.60;14.58;;;;;;;3.38;79.99;101413.36;1839656;77;25495;-64
2022/12/27 01:50:07;;;;;;;22.05;15.00;;;;;;;3.31;80.03;101399.97;1859030;77;25817;-64
2022/12/27 01:53:00;;;;;;;23.57;14.98;;;;;;;3.29;80.14;101402.71;1855266;77;25785;-64
2022/12/27 01:55:32;;;;;;;22.50;15.43;;;;;;;3.25;79.69;101401.12;1836295;77;25709;-64
2022/12/27 01:58:04;;;;;;;25.65;15.78;;;;;;;3.12;79.56;101404.83;1811598;78;27480;-64
2022/12/27 02:00:31;;;;;;;24.98;15.30;;;;;;;3.06;79.78;101401.14;1849686;77;26100;-63
2022/12/27 02:03:01;;;;;;;37.65;24.15;;;;;;;3.04;79.85;101395.51;1822889;78;25686;-63
2022/12/27 02:05:30;;;;;;;24.87;16.32;;;;;;;3.03;80.01;101395.11;1837970;75;25790;-64
2022/12/27 02:08:38;;;;;;;24.02;15.95;;;;;;;2.98;79.70;101392.19;1856519;75;25933;-64
2022/12/27 02:11:08;;;;;;;25.23;15.32;;;;;;;2.97;79.79;101393.59;1820018;77;29808;-63
2022/12/27 02:13:40;;;;;;;26.87;16.17;;;;;;;2.90;79.80;101384.19;1826599;77;25500;-64
2022/12/27 02:16:17;;;;;;;24.23;15.98;;;;;;;2.87;79.78;101375.02;1845532;77;25804;-64
2022/12/27 02:18:45;;;;;;;23.50;15.15;;;;;;;2.87;79.95;101369.70;1820796;78;25794;-64
2022/12/27 02:21:26;;;;;;;24.07;14.98;;;;;;;2.82;80.01;101361.95;1821511;75;25797;-64
2022/12/27 02:24:05;;;;;;;24.02;15.45;;;;;;;2.78;80.07;101357.73;1818779;78;27987;-64
2022/12/27 02:26:49;;;;;;;25.75;14.87;;;;;;;2.77;80.32;101356.84;1826129;75;25746;-64
2022/12/27 02:29:23;;;;;;;;;;;;;;;2.74;80.42;101356.98;1813219;77;25833;-64
2022/12/27 02:32:12;;;;;;;22.30;13.70;;;;;;;2.76;80.78;101358.26;1826060;77;25798;-64
2022/12/27 02:35:13;;;;;;;24.20;14.85;;;;;;;2.79;81.13;101355.44;1825303;78;25708;-65
2022/12/27 02:37:51;;;;;;;24.82;15.40;;;;;;;2.84;81.30;101358.77;1826038;78;27483;-64
2022/12/27 02:55:12;;;;;;;;;;;;;;;3.39;82.06;101341.09;1828586;78;25724;-64
2022/12/27 02:58:18;;;;;;;26.93;14.83;;;;;;;3.36;81.34;101330.11;1826343;77;26414;-64
2022/12/27 03:04:50;;;;;;;19.60;13.70;;;;;;;3.27;80.87;101324.80;1800088;79;25796;-65
2022/12/27 03:07:34;;;;;;;22.75;13.80;;;;;;;3.33;81.19;101318.31;1824861;77;27433;-65
2022/12/27 03:16:41;;;;;;;20.12;13.98;;;;;;;3.48;80.82;101310.50;1825469;78;25779;-64
2022/12/27 03:19:12;;;;;;;21.73;14.35;;;;;;;3.38;80.69;101308.30;1825705;78;25898;-63
2022/12/27 03:27:29;;;;;;;24.90;15.03;;;;;;;3.39;80.90;101308.70;1825356;77;25697;-64
2022/12/27 03:38:49;;;;;;;26.50;15.40;;;;;;;3.16;79.97;101289.05;1842731;77;25799;-64
2022/12/27 03:44:23;;;;;;;27.90;17.45;;;;;;;2.96;79.95;101287.73;1843063;77;25817;-65
2022/12/27 03:46:58;;;;;;;22.82;16.23;;;;;;;2.90;80.03;101288.52;1842897;77;25897;-65
2022/12/27 03:49:41;;;;;;;25.57;16.70;;;;;;;2.85;80.12;101282.09;1843313;77;27421;-65
2022/12/27 03:52:29;;;;;;;23.93;15.07;;;;;;;2.86;80.30;101290.91;1840179;77;25762;-62
2022/12/27 03:54:57;;;;;;;22.77;15.48;;;;;;;2.89;80.89;101292.11;1842598;77;25436;-65
2022/12/27 03:57:26;;;;;;;25.17;16.00;;;;;;;2.87;80.59;101292.64;1838626;77;25941;-65
2022/12/27 03:59:54;;;;;;;21.52;14.68;;;;;;;2.88;80.82;101293.04;1843412;77;26409;-63
2022/12/27 04:02:21;;;;;;;22.85;15.88;;;;;;;2.96;81.21;101281.56;1842957;77;27446;-63
2022/12/27 04:04:49;;;;;;;24.50;14.87;;;;;;;3.02;81.32;101283.92;1843035;77;26149;-62
2022/12/27 04:07:16;;;;;;;23.62;15.32;;;;;;;3.09;81.50;101286.66;1835827;77;25716;-63
2022/12/27 04:34:43;;;;;;;21.27;14.25;;;;;;;3.44;81.48;101289.84;1853064;77;25691;-63
2022/12/27 04:37:17;;;;;;;24.12;14.83;;;;;;;3.43;81.56;101298.31;1848164;76;25870;-63
2022/12/27 04:56:13;;;;;;;25.23;17.02;;;;;;;3.54;80.85;101318.20;1775091;76;27634;-62
2022/12/27 05:02:01;;;;;;;22.87;15.85;;;;;;;3.53;80.73;101309.34;1853296;77;25654;-62
2022/12/27 05:03:54;;;;;;;33.05;20.50;;;;;;;3.48;80.56;101307.84;1819989;77;25784;-63
2022/12/27 05:06:20;;;;;;;23.77;16.02;;;;;;;3.48;80.60;101303.84;1822003;77;25738;-63
2022/12/27 05:14:19;;;;;;;28.30;19.27;;;;;;;3.29;80.25;101287.48;1854443;76;25681;-62
2022/12/27 05:16:46;;;;;;;27.52;18.02;;;;;;;3.21;80.38;101284.34;1839069;77;25781;-62
2022/12/27 05:19:14;;;;;;;26.60;18.02;;;;;;;3.14;80.32;101278.46;1820254;77;25825;-62
2022/12/27 05:26:44;;;;;;;34.25;20.02;;;;;;;3.04;80.63;101282.05;1798709;77;25721;-64
2022/12/27 05:29:11;;;;;;;25.48;16.60;;;;;;;3.05;80.59;101288.25;1854314;77;25760;-63
2022/12/27 05:31:38;;;;;;;28.60;17.20;;;;;;;3.07;80.78;101285.91;1842633;77;26332;-64
2022/12/27 05:34:06;;;;;;;28.23;18.15;;;;;;;3.08;80.88;101279.66;1816312;79;27467;-64
2022/12/27 05:36:33;;;;;;;29.30;17.67;;;;;;;3.13;81.07;101286.08;1824833;75;25845;-64
2022/12/27 05:39:01;;;;;;;24.00;16.35;;;;;;;3.13;81.00;101284.74;1836446;77;25727;-63
2022/12/27 05:41:28;;;;;;;28.70;16.85;;;;;;;3.15;81.14;101289.98;1819650;75;25836;-63
2022/12/27 05:43:57;;;;;;;25.05;15.85;;;;;;;3.16;81.35;101291.22;1856566;77;25760;-64
2022/12/27 05:46:24;;;;;;;25.40;15.88;;;;;;;3.20;81.61;101285.28;1856605;77;27427;-64
2022/12/27 05:48:51;;;;;;;26.68;16.35;;;;;;;3.21;81.70;101280.36;1833753;75;27172;-63
2022/12/27 05:51:20;;;;;;;23.42;15.68;;;;;;;3.26;81.71;101281.85;1851694;75;26345;-64
2022/12/27 05:53:47;;;;;;;22.30;15.53;;;;;;;3.27;81.53;101272.95;1836863;77;25894;-64
2022/12/27 05:56:19;;;;;;;26.57;15.98;;;;;;;3.29;81.49;101271.08;1823065;78;25793;-63
2022/12/27 05:58:47;;;;;;;31.52;19.05;;;;;;;3.35;81.75;101266.38;1847692;77;27531;-63
2022/12/27 06:01:16;;;;;;;28.25;17.48;;;;;;;3.39;81.62;101266.14;1858104;77;25740;-63
2022/12/27 06:03:44;;;;;;;24.75;16.27;;;;;;;3.48;81.88;101270.60;1853668;75;25835;-64
2022/12/27 06:06:13;;;;;;;26.73;17.35;;;;;;;3.52;81.63;101266.86;1851961;77;25824;-63
2022/12/27 06:08:40;;;;;;;24.67;15.98;;;;;;;3.52;81.26;101265.53;1838464;75;25776;-63
2022/12/27 06:11:10;;;;;;;22.90;14.95;;;;;;;3.51;81.18;101268.64;1856098;75;27457;-64
2022/12/27 06:13:39;;;;;;;28.60;17.15;;;;;;;3.56;81.47;101270.62;1857894;77;25826;-63
2022/12/27 06:16:09;;;;;;;25.20;17.02;;;;;;;3.60;81.40;101269.98;1852933;77;25752;-64
2022/12/27 06:18:39;;;;;;;27.80;17.35;;;;;;;3.62;81.32;101275.22;1816887;77;26372;-63
2022/12/27 06:21:11;;;;;;;27.65;17.48;;;;;;;3.68;81.56;101274.44;1822888;77;25799;-64
2022/12/27 06:23:40;;;;;;;26.52;17.15;;;;;;;3.74;81.40;101273.27;1855454;77;27444;-64
2022/12/27 06:26:11;;;;;;;28.05;18.10;;;;;;;3.74;81.29;101274.59;1856659;77;25637;-64
2022/12/27 06:28:38;;;;;;;28.52;18.57;;;;;;;3.75;81.19;101278.50;1837944;77;25621;-63
2022/12/27 06:31:06;;;;;;;40.28;19.60;;;;;;;3.79;81.14;101273.87;1850014;77;25893;-63
2022/12/27 06:33:34;;;;;;;29.60;18.12;;;;;;;3.73;80.72;101277.70;1855674;77;25701;-63
2022/12/27 06:36:14;;;;;;;27.48;18.37;;;;;;;3.66;80.49;101272.80;1854134;77;27582;-64
2022/12/27 06:38:41;;;;;;;26.95;18.23;;;;;;;3.63;80.41;101280.94;1845458;77;25656;-64
2022/12/27 06:41:12;;;;;;;28.83;19.35;;;;;;;3.61;80.41;101282.35;1856238;77;25744;-64
2022/12/27 06:43:40;;;;;;;27.10;17.45;;;;;;;3.61;80.45;101283.69;1822685;77;25831;-63
2022/12/27 06:46:16;;;;;;;27.05;17.55;;;;;;;3.60;80.24;101283.29;1822919;78;25884;-63
2022/12/27 06:48:46;;;;;;;29.50;18.40;;;;;;;3.60;80.16;101288.61;1832009;75;27506;-64
2022/12/27 06:51:15;;;;;;;34.67;20.68;;;;;;;3.57;80.18;101287.42;1836768;77;25815;-63
2022/12/27 06:53:43;;;;;;;36.90;21.48;;;;;;;3.56;80.29;101283.04;1848059;77;25522;-63
2022/12/27 06:56:17;;;;;;;35.25;21.73;;;;;;;3.52;80.07;101285.00;1833064;77;26509;-63
2022/12/27 06:58:45;;;;;;;36.70;22.65;;;;;;;3.50;80.06;101272.23;1857912;77;26143;-64
2022/12/27 07:01:17;;;;;;;40.15;23.32;;;;;;;3.47;80.13;101274.19;1856790;75;27459;-64
2022/12/27 07:03:50;;;;;;;36.40;20.65;;;;;;;3.43;80.09;101274.37;1828883;77;25689;-63
2022/12/27 07:06:18;;;;;;;37.88;22.98;;;;;;;3.43;80.22;101277.03;1840921;75;25844;-64
2022/12/27 07:08:46;;;;;;;31.85;20.45;;;;;;;3.44;80.20;101274.77;1849951;75;25676;-63
2022/12/27 07:11:15;;;;;;;32.38;18.42;;;;;;;3.47;80.24;101283.05;1841365;77;25746;-63
2022/12/27 07:13:46;;;;;;;28.32;18.95;;;;;;;3.51;80.36;101276.63;1842835;75;27430;-64
2022/12/27 07:16:16;;;;;;;28.40;17.27;;;;;;;3.56;80.55;101279.92;1856077;77;25853;-64
2022/12/27 07:18:43;;;;;;;33.40;18.82;;;;;;;3.63;81.05;101264.48;1856079;77;25841;-64
2022/12/27 07:21:17;;;;;;;28.70;18.92;;;;;;;3.73;81.14;101270.21;1856769;77;26593;-63
2022/12/27 07:23:45;;;;;;;28.35;18.17;;;;;;;3.80;81.11;101273.42;1857960;75;25813;-63
2022/12/27 07:26:20;;;;;;;29.65;19.02;;;;;;;3.85;81.28;101272.24;1859852;77;27559;-64
2022/12/27 07:28:48;;;;;;;34.38;20.88;;;;;;;3.95;81.55;101267.28;1829603;77;25789;-63
2022/12/27 07:31:18;;;;;;;35.95;20.45;;;;;;;4.02;81.46;101266.01;1842993;77;25798;-63
2022/12/27 07:33:45;;;;;;;34.75;20.20;;;;;;;4.03;81.28;101260.23;1821765;78;26637;-64
2022/12/27 07:36:19;;;;;;;31.30;18.55;;;;;;;4.03;81.03;101265.56;1813664;78;26049;-64
2022/12/27 07:38:46;;;;;;;;;;;;;;;4.10;81.18;101260.73;1823231;78;27508;-64
2022/12/27 07:41:14;;;;;;;28.02;18.10;;;;;;;4.16;81.20;101258.62;1834125;77;25732;-64
2022/12/27 07:43:43;;;;;;;32.20;19.00;;;;;;;4.17;81.14;101265.67;1833645;78;26935;-64
2022/12/27 07:46:14;;;;;;;34.38;19.12;;;;;;;4.22;81.17;101281.40;1835199;78;26485;-64
2022/12/27 07:48:42;;;;;;;34.70;19.37;;;;;;;4.26;81.33;101278.09;1829338;78;25758;-64
2022/12/27 07:51:10;;;;;;;31.02;19.42;;;;;;;4.32;80.94;101276.42;1814459;79;28091;-64
2022/12/27 07:53:37;;;;;;;35.05;20.72;;;;;;;4.31;81.05;101270.25;1826652;78;25910;-64
2022/12/27 07:56:15;;;;;;;37.63;23.05;;;;;;;4.36;81.11;101268.66;1830674;78;25693;-63
2022/12/27 07:58:45;;;;;;;33.10;19.77;;;;;;;4.34;80.84;101281.20;1830816;77;25808;-63
2022/12/27 08:01:15;;;;;;;30.90;18.60;;;;;;;4.35;80.85;101283.77;1822138;78;25721;-64
2022/12/27 08:03:42;;;;;;;26.12;17.87;;;;;;;4.38;80.71;101287.61;1821496;78;27397;-64
2022/12/27 08:06:23;;;;;;;26.33;16.73;;;;;;;4.47;81.02;101292.05;1814083;78;25770;-63
2022/12/27 08:08:52;;;;;;;27.85;18.60;;;;;;;4.53;80.86;101293.91;1830037;78;25689;-64
2022/12/27 08:11:19;;;;;;;31.02;18.95;;;;;;;4.55;80.31;101291.15;1830798;78;25732;-64
2022/12/27 08:13:47;;;;;;;33.38;19.05;;;;;;;4.52;80.27;101296.18;1831730;78;25741;-63
2022/12/27 08:16:21;;;;;;;31.17;19.50;;;;;;;4.55;79.72;101296.48;1819622;78;27456;-64
2022/12/27 08:18:48;;;;;;;29.42;18.55;;;;;;;4.50;79.78;101303.88;1822151;78;25725;-64
2022/12/27 08:21:16;;;;;;;28.00;18.67;;;;;;;4.49;79.93;101308.81;1830556;78;25645;-64
2022/12/27 08:23:42;;;;;;;29.60;18.57;;;;;;;4.50;80.08;101311.38;1825767;78;25946;-64
2022/12/27 08:26:10;;;;;;;30.70;19.37;;;;;;;4.52;79.98;101303.33;1814397;79;25736;-64
2022/12/27 08:28:37;;;;;;;31.12;20.10;;;;;;;4.52;79.98;101304.66;1824481;78;27399;-64
2022/12/27 08:31:08;;;;;;;29.30;19.20;;;;;;;4.52;80.03;101303.33;1829998;77;25805;-63
2022/12/27 08:33:36;;;;;;;24.27;18.07;;;;;;;4.54;80.06;101320.06;1832174;77;27152;-63
2022/12/27 08:36:06;;;;;;;24.12;16.62;;;;;;;4.52;79.85;101327.31;1839850;77;27942;-64
2022/12/27 08:38:34;;;;;;;24.65;17.45;;;;;;;4.45;79.23;101328.11;1829396;76;25444;-63
2022/12/27 08:41:01;;;;;;;34.40;18.70;;;;;;;4.36;79.42;101324.13;1834045;77;28344;-64
2022/12/27 08:43:28;;;;;;;37.45;18.65;;;;;;;4.31;79.54;101311.53;1822405;77;25720;-63
2022/12/27 08:46:04;;;;;;;45.90;24.85;;;;;;;4.28;79.83;101299.70;1847464;76;25723;-64
2022/12/27 08:48:32;;;;;;;42.93;23.65;;;;;;;4.22;79.82;101294.23;1849250;77;25821;-63
2022/12/27 08:51:07;;;;;;;41.58;24.35;;;;;;;4.18;80.14;101291.36;1832530;77;25697;-63
2022/12/27 08:53:34;;;;;;;32.48;19.17;;;;;;;4.19;80.41;101295.75;1839931;77;27412;-64
2022/12/27 08:56:01;;;;;;;28.90;18.85;;;;;;;4.17;80.79;101292.78;1854117;77;26096;-63
2022/12/27 08:58:27;;;;;;;31.23;21.70;;;;;;;4.14;81.06;101281.80;1850209;77;25712;-63
2022/12/27 09:00:54;;;;;;;39.63;21.77;;;;;;;4.15;81.08;101281.34;1836116;77;26711;-63
2022/12/27 09:03:21;;;;;;;37.67;22.27;;;;;;;4.19;81.51;101281.55;1835972;77;25737;-63
2022/12/27 09:05:48;;;;;;;36.23;23.07;;;;;;;4.28;81.77;101277.55;1854350;77;27814;-64
2022/12/27 09:08:16;;;;;;;35.58;22.62;;;;;;;4.37;81.72;101271.23;1840017;77;25823;-64
2022/12/27 09:10:43;;;;;;;39.58;23.75;;;;;;;4.43;81.41;101274.04;1842973;77;26019;-64
2022/12/27 09:13:10;;;;;;;43.63;23.38;;;;;;;4.53;81.67;101276.59;1839322;77;25758;-64
2022/12/27 09:15:38;;;;;;;37.65;23.15;;;;;;;4.66;81.63;101267.93;1838489;77;25682;-64
2022/12/27 09:18:06;;;;;;;42.50;23.42;;;;;;;4.80;81.79;101268.00;1853114;77;27515;-64
2022/12/27 09:20:32;;;;;;;38.90;25.52;;;;;;;4.89;81.57;101267.09;1853754;77;27290;-64
2022/12/27 09:23:00;;;;;;;35.98;23.07;;;;;;;4.98;81.87;101263.41;1830370;77;25507;-64
2022/12/27 09:25:27;;;;;;;39.70;24.90;;;;;;;5.00;81.23;101268.19;1821059;77;25956;-64
2022/12/27 09:27:54;;;;;;;36.85;22.35;;;;;;;4.98;81.02;101258.08;1819722;77;25768;-64
2022/12/27 09:30:21;;;;;;;42.45;26.30;;;;;;;5.01;81.37;101251.25;1819761;78;27447;-64
2022/12/27 09:32:48;;;;;;;37.88;23.32;;;;;;;5.00;81.25;101254.86;1832734;77;25893;-64
2022/12/27 09:35:15;;;;;;;34.18;22.60;;;;;;;5.03;81.30;101256.48;1820971;77;25560;-64
2022/12/27 09:37:42;;;;;;;34.27;21.82;;;;;;;5.05;81.09;101250.59;1825289;77;25754;-64
2022/12/27 09:40:14;;;;;;;36.85;23.30;;;;;;;5.10;80.89;101237.00;1834261;77;25766;-64
2022/12/27 09:42:55;;;;;;;40.90;24.75;;;;;;;5.12;80.85;101238.61;1822712;77;27493;-65
2022/12/27 09:45:40;;;;;;;40.35;23.22;;;;;;;5.17;80.86;101241.89;1836297;77;25685;-64
2022/12/27 09:48:18;;;;;;;57.62;33.35;;;;;;;5.30;80.57;101232.69;1821441;77;25811;-64
2022/12/27 09:50:53;;;;;;;46.28;29.10;;;;;;;5.56;80.36;101228.09;1816110;79;25778;-64
2022/12/27 09:53:27;;;;;;;38.33;23.80;;;;;;;6.01;80.56;101224.05;1818632;77;27274;-64
2022/12/27 09:55:59;;;;;;;32.85;21.55;;;;;;;6.51;79.85;101220.47;1819234;77;27513;-64
2022/12/27 09:58:58;;;;;;;36.75;24.60;;;;;;;6.67;78.91;101200.30;1821395;77;26302;-64
2022/12/27 10:01:41;;;;;;;31.07;20.72;;;;;;;6.94;78.99;101207.45;1821048;77;25784;-64
2022/12/27 10:04:12;;;;;;;39.38;22.65;;;;;;;7.61;78.00;101204.70;1821530;77;25816;-64
2022/12/27 10:07:06;;;;;;;36.80;21.50;;;;;;;7.79;77.70;101209.73;1821128;77;43259;-64
2022/12/27 10:09:56;;;;;;;28.73;19.60;;;;;;;8.23;77.22;101201.70;1822591;77;27653;-64
2022/12/27 10:12:53;;;;;;;30.37;20.23;;;;;;;8.48;74.97;101205.77;1819442;77;25794;-64
2022/12/27 10:15:55;;;;;;;33.98;20.02;;;;;;;8.41;75.03;101194.64;1754806;79;25763;-65
2022/12/27 10:18:51;;;;;;;23.85;17.32;;;;;;;8.58;74.48;101200.12;1817465;77;26025;-64
2022/12/27 10:21:25;;;;;;;27.85;18.42;;;;;;;8.49;75.16;101214.20;1810543;78;25989;-63
2022/12/27 10:24:01;;;;;;;;;;;;;;;8.49;75.46;101216.41;1825334;77;27459;-63
2022/12/27 10:26:28;;;;;;;27.85;19.15;;;;;;;8.35;74.99;101217.84;1819262;77;25822;-63
2022/12/27 10:29:15;;;;;;;26.77;18.57;;;;;;;8.21;75.14;101217.03;1818144;77;25692;-63
2022/12/27 10:31:42;;;;;;;30.20;18.85;;;;;;;8.21;75.70;101212.13;1819894;77;25865;-63
2022/12/27 10:34:16;;;;;;;28.47;18.65;;;;;;;8.15;75.62;101218.32;1837538;77;25714;-63
2022/12/27 10:36:45;;;;;;;37.10;22.50;;;;;;;8.21;75.70;101204.09;1836679;77;27775;-63
2022/12/27 10:39:22;;;;;;;34.35;22.75;;;;;;;8.39;75.12;101201.92;1840407;77;25840;-63
2022/12/27 10:42:26;;;;;;;41.10;24.85;;;;;;;9.43;75.51;101200.98;1838633;77;25790;-63
2022/12/27 10:45:27;;;;;;;28.45;20.27;;;;;;;10.27;74.03;101205.55;1817673;78;25825;-64
2022/12/27 10:48:19;;;;;;;26.05;18.12;;;;;;;10.69;72.77;101200.87;1813062;77;25830;-63
2022/12/27 10:51:02;;;;;;;25.05;17.57;;;;;;;11.08;72.43;101207.97;1819392;78;27543;-63
2022/12/27 10:53:49;;;;;;;25.32;17.27;;;;;;;12.22;70.63;101195.11;1820803;77;27284;-63
2022/12/27 10:56:21;;;;;;;23.73;17.62;;;;;;;12.93;66.87;101200.86;1819475;77;25764;-64
2022/12/27 10:58:51;;;;;;;26.20;18.05;;;;;;;13.48;66.93;101185.10;1821164;77;25777;-63
2022/12/27 11:01:28;;;;;;;20.60;16.27;;;;;;;14.08;63.22;101182.04;1825911;77;25725;-64
2022/12/27 11:04:17;;;;;;;24.12;16.30;;;;;;;14.45;61.83;101185.20;1843203;77;28254;-63
2022/12/27 11:06:52;;;;;;;18.85;15.80;;;;;;;14.81;61.68;101197.47;1830576;77;25857;-63
2022/12/27 11:09:42;;;;;;;22.30;16.15;;;;;;;15.41;60.71;101189.20;1816895;77;25893;-63
2022/12/27 11:12:20;;;;;;;19.87;15.00;;;;;;;15.87;58.25;101191.73;1842031;77;26607;-64
2022/12/27 11:15:14;;;;;;;20.32;15.68;;;;;;;16.50;57.91;101190.13;1809714;79;25726;-64
2022/12/27 11:17:58;;;;;;;19.55;15.53;;;;;;;17.06;57.42;101183.66;1812871;77;27377;-64
2022/12/27 11:20:36;;;;;;;17.98;14.55;;;;;;;17.79;55.39;101187.34;1817558;77;26089;-65
2022/12/27 11:23:11;;;;;;;20.50;15.72;;;;;;;17.25;54.86;101190.63;1818740;77;25808;-65
2022/12/27 11:25:58;;;;;;;18.70;15.20;;;;;;;16.62;50.76;101180.66;1819869;77;25805;-63
2022/12/27 11:28:39;;;;;;;23.65;15.68;;;;;;;15.99;53.23;101190.11;1835765;77;25852;-62
2022/12/27 11:31:13;;;;;;;24.90;17.07;;;;;;;15.37;52.61;101196.45;1822436;78;27473;-64
2022/12/27 11:33:48;;;;;;;28.35;20.30;;;;;;;14.52;54.57;101198.47;1833019;77;25721;-63
2022/12/27 11:36:32;;;;;;;25.60;18.82;;;;;;;13.76;54.45;101199.02;1842707;77;25725;-63
2022/12/27 11:39:00;;;;;;;33.02;21.73;;;;;;;12.92;55.83;101201.86;1823106;77;26684;-63
2022/12/27 11:41:49;;;;;;;36.65;22.82;;;;;;;12.36;56.42;101193.41;1819676;78;25651;-63
2022/12/27 11:44:28;;;;;;;31.93;21.23;;;;;;;11.97;57.39;101190.55;1818537;77;27380;-63
2022/12/27 11:47:09;;;;;;;24.67;19.48;;;;;;;11.38;58.39;101193.37;1820824;77;25956;-63
2022/12/27 11:49:41;;;;;;;32.23;19.40;;;;;;;11.02;59.20;101186.08;1821054;77;25753;-63
2022/12/27 11:52:33;;;;;;;38.40;22.02;;;;;;;10.78;60.29;101189.85;1830571;77;25868;-63
2022/12/27 11:55:50;;;;;;;29.23;20.55;;;;;;;10.58;60.86;101196.89;1809822;79;25757;-62
2022/12/27 11:58:37;;;;;;;31.05;20.75;;;;;;;10.29;61.40;101192.00;1818186;77;27490;-63
2022/12/27 12:01:37;;;;;;;28.60;19.85;;;;;;;10.10;62.21;101190.80;1835837;77;26257;-63
2022/12/27 12:04:39;;;;;;;26.23;20.40;;;;;;;10.03;62.97;101185.55;1837043;77;26509;-63
2022/12/27 12:07:39;;;;;;;28.55;19.95;;;;;;;9.89;62.82;101194.70;1814845;77;25771;-63
2022/12/27 12:10:36;;;;;;;30.32;22.15;;;;;;;9.71;63.72;101189.80;1819578;77;25784;-63
2022/12/27 12:13:35;;;;;;;30.05;21.35;;;;;;;9.80;64.09;101194.93;1821530;77;27461;-63
2022/12/27 12:16:39;;;;;;;30.82;20.12;;;;;;;9.87;64.53;101190.77;1823407;77;25697;-63
2022/12/27 12:19:11;;;;;;;29.92;20.62;;;;;;;10.00;64.65;101183.94;1839884;77;25760;-63
2022/12/27 12:22:17;;;;;;;30.23;20.57;;;;;;;10.09;64.60;101188.20;1827978;77;26291;-63
2022/12/27 12:25:23;;;;;;;34.35;22.07;;;;;;;10.14;64.41;101192.24;1826348;77;25848;-63
2022/12/27 12:28:23;;;;;;;33.00;22.02;;;;;;;10.26;64.49;101190.89;1826024;77;27470;-62
2022/12/27 12:31:04;;;;;;;33.70;22.90;;;;;;;10.39;64.92;101194.34;1829867;77;25722;-62
2022/12/27 12:33:45;;;;;;;32.58;22.58;;;;;;;10.43;64.15;101195.80;1836948;77;26511;-63
2022/12/27 12:36:40;;;;;;;37.48;23.83;;;;;;;10.31;64.41;101198.09;1838212;77;26762;-62
2022/12/27 12:39:59;;;;;;;34.83;24.20;;;;;;;10.25;64.43;101201.28;1815033;79;25693;-63
2022/12/27 12:43:04;;;;;;;41.13;25.57;;;;;;;10.15;64.56;101215.46;1815089;78;27549;-63
2022/12/27 12:45:59;;;;;;;42.55;27.10;;;;;;;10.11;64.88;101211.33;1822966;78;25765;-63
2022/12/27 12:48:50;;;;;;;38.25;25.57;;;;;;;10.13;64.48;101213.37;1823003;77;25783;-63
2022/12/27 12:51:31;;;;;;;42.25;26.33;;;;;;;10.03;64.89;101215.12;1819546;77;25789;-62
2022/12/27 12:54:29;;;;;;;36.42;25.20;;;;;;;9.87;64.99;101211.43;1819912;77;25929;-63
2022/12/27 12:57:17;;;;;;;38.45;26.45;;;;;;;9.71;65.57;101217.14;1842003;77;27662;-63
2022/12/27 13:00:27;;;;;;;39.03;27.17;;;;;;;9.60;65.84;101219.33;1836095;77;25758;-63
2022/12/27 13:03:09;;;;;;;41.55;26.02;;;;;;;9.50;65.89;101223.20;1840790;77;25793;-63
2022/12/27 13:05:59;;;;;;;44.95;27.35;;;;;;;9.38;65.95;101219.63;1817623;77;26276;-63
2022/12/27 13:08:34;;;;;;;41.23;24.75;;;;;;;9.29;66.52;101244.49;1817832;77;25726;-62
2022/12/27 13:11:31;;;;;;;35.83;22.22;;;;;;;9.16;67.45;101329.12;1828827;76;27456;-62
2022/12/27 13:14:31;;;;;;;38.00;22.55;;;;;;;8.95;68.86;101331.56;1841859;77;25698;-63
2022/12/27 13:17:25;;;;;;;39.78;23.05;;;;;;;8.70;69.77;101341.86;1849055;77;25675;-63
2022/12/27 13:20:06;;;;;;;36.30;22.42;;;;;;;8.57;70.46;101352.60;1831509;77;25900;-62
2022/12/27 13:22:38;;;;;;;36.40;21.12;;;;;;;8.50;70.70;101372.78;1831015;76;25783;-62
2022/12/27 13:25:40;;;;;;;36.70;22.98;;;;;;;8.49;71.02;101382.66;1830207;77;27452;-63
2022/12/27 13:28:53;;;;;;;36.42;21.73;;;;;;;8.45;72.17;101384.67;1760743;79;26109;-62
2022/12/27 13:31:50;;;;;;;40.73;24.10;;;;;;;8.43;72.38;101387.05;1830955;77;25911;-62
2022/12/27 13:34:37;;;;;;;33.63;22.65;;;;;;;8.38;72.41;101386.03;1816647;77;26365;-62